createdAt,value
2018-11-21T00:01:40.721Z,1006.30
2018-11-21T00:06:36.528Z,1006.19
2018-11-21T00:11:32.122Z,1006.26
2018-11-21T00:16:27.680Z,1006.45
2018-11-21T00:21:24.336Z,1006.34
2018-11-21T00:26:19.557Z,1006.44
2018-11-21T00:31:15.159Z,1006.40
2018-11-21T00:36:10.766Z,1006.37
2018-11-21T00:41:06.388Z,1006.29
2018-11-21T00:46:03.618Z,1006.33
2018-11-21T00:50:58.807Z,1006.27
2018-11-21T00:55:55.078Z,1006.16
2018-11-21T01:00:52.099Z,1006.21
2018-11-21T01:05:47.325Z,1006.23
2018-11-21T01:10:43.008Z,1006.18
2018-11-21T01:15:38.651Z,1006.33
2018-11-21T01:20:34.272Z,1006.50
2018-11-21T01:25:30.480Z,1006.50
2018-11-21T01:30:25.907Z,1006.70
2018-11-21T01:35:21.545Z,1006.67
2018-11-21T01:40:17.578Z,1006.84
2018-11-21T01:45:12.990Z,1006.72
2018-11-21T01:50:08.563Z,1006.76
2018-11-21T01:55:04.944Z,1006.80
2018-11-21T02:00:00.757Z,1006.85
2018-11-21T02:04:56.388Z,1006.84
2018-11-21T02:09:51.942Z,1006.81
2018-11-21T02:14:47.541Z,1006.82
2018-11-21T02:19:44.150Z,1006.96
2018-11-21T02:24:39.519Z,1006.93
2018-11-21T02:29:37.260Z,1007.09
2018-11-21T02:34:32.441Z,1007.06
2018-11-21T02:39:28.092Z,1007.22
2018-11-21T02:44:23.780Z,1007.03
2018-11-21T02:49:20.520Z,1007.10
2018-11-21T02:54:16.139Z,1007.00
2018-11-21T02:59:12.507Z,1007.03
2018-11-21T03:04:09.073Z,1007.08
2018-11-21T03:09:04.532Z,1007.02
2018-11-21T03:14:00.423Z,1006.99
2018-11-21T03:18:56.066Z,1006.89
2018-11-21T03:23:52.855Z,1006.93
2018-11-21T03:28:48.209Z,1007.17
2018-11-21T03:33:44.708Z,1007.16
2018-11-21T03:38:40.038Z,1007.25
2018-11-21T03:43:36.439Z,1007.30
2018-11-21T03:48:33.038Z,1007.46
2018-11-21T03:53:28.499Z,1007.51
2018-11-21T03:58:23.687Z,1007.60
2018-11-21T04:03:20.333Z,1007.67
2018-11-21T04:08:16.155Z,1007.76
2018-11-21T04:18:14.554Z,1007.74
2018-11-21T04:23:10.837Z,1007.84
2018-11-21T04:28:07.140Z,1007.95
2018-11-21T04:33:03.940Z,1007.97
2018-11-21T04:37:59.636Z,1008.12
2018-11-21T04:42:55.210Z,1008.36
2018-11-21T04:47:50.894Z,1008.25
2018-11-21T04:52:46.562Z,1008.32
2018-11-21T04:57:43.396Z,1008.37
2018-11-21T05:02:39.893Z,1008.34
2018-11-21T05:07:35.560Z,1008.39
2018-11-21T05:12:31.204Z,1008.42
2018-11-21T05:17:27.011Z,1008.51
2018-11-21T05:22:22.475Z,1008.55
2018-11-21T05:27:18.039Z,1008.56
2018-11-21T05:32:15.914Z,1008.59
2018-11-21T05:37:11.293Z,1008.53
2018-11-21T05:42:07.004Z,1008.60
2018-11-21T05:47:03.738Z,1008.62
2018-11-21T05:51:59.029Z,1008.67
2018-11-21T05:56:54.531Z,1008.68
2018-11-21T06:01:51.181Z,1008.80
2018-11-21T06:06:46.528Z,1008.82
2018-11-21T06:11:42.413Z,1008.88
2018-11-21T06:16:38.041Z,1008.98
2018-11-21T06:21:33.585Z,1009.01
2018-11-21T06:26:29.279Z,1009.12
2018-11-21T06:31:26.103Z,1009.17
2018-11-21T06:36:21.288Z,1009.28
2018-11-21T06:41:16.950Z,1009.34
2018-11-21T06:46:12.596Z,1009.37
2018-11-21T06:51:08.254Z,1009.47
2018-11-21T06:56:04.944Z,1009.53
2018-11-21T07:01:00.350Z,1009.60
2018-11-21T07:05:55.898Z,1009.63
2018-11-21T07:10:52.665Z,1009.49
2018-11-21T07:15:47.946Z,1009.60
2018-11-21T07:20:43.504Z,1009.59
2018-11-21T07:25:40.326Z,1009.65
2018-11-21T07:30:36.223Z,1009.57
2018-11-21T07:35:32.487Z,1009.67
2018-11-21T07:40:27.767Z,1009.84
2018-11-21T07:45:23.794Z,1009.95
2018-11-21T07:50:19.583Z,1010.10
2018-11-21T07:55:15.311Z,1010.12
2018-11-21T08:00:10.923Z,1010.26
2018-11-21T08:05:06.746Z,1010.30
2018-11-21T08:10:01.880Z,1010.28
2018-11-21T08:14:57.839Z,1010.33
2018-11-21T08:19:53.680Z,1010.37
2018-11-21T08:24:50.256Z,1010.39
2018-11-21T08:29:45.603Z,1010.55
2018-11-21T08:34:41.689Z,1010.50
2018-11-21T08:39:37.425Z,1010.60
2018-11-21T08:44:33.308Z,1010.65
2018-11-21T08:49:30.082Z,1010.69
2018-11-21T08:54:25.479Z,1010.68
2018-11-21T08:59:22.285Z,1010.46
2018-11-21T09:04:17.951Z,1010.58
2018-11-21T09:09:13.648Z,1010.67
2018-11-21T09:14:09.440Z,1010.83
2018-11-21T09:19:05.336Z,1010.84
2018-11-21T09:24:01.766Z,1011.02
2018-11-21T09:28:57.628Z,1011.01
2018-11-21T09:33:53.517Z,1010.95
2018-11-21T09:38:50.275Z,1010.94
2018-11-21T09:43:45.719Z,1010.89
2018-11-21T09:48:41.812Z,1011.02
2018-11-21T09:53:37.392Z,1011.11
2018-11-21T09:58:33.939Z,1011.21
2018-11-21T10:03:29.777Z,1011.23
2018-11-21T10:08:25.672Z,1011.20
2018-11-21T10:13:22.439Z,1011.26
2018-11-21T10:18:17.881Z,1011.28
2018-11-21T10:23:13.548Z,1011.26
2018-11-21T10:28:09.225Z,1011.36
2018-11-21T10:33:05.361Z,1011.32
2018-11-21T10:38:01.227Z,1011.28
2018-11-21T10:42:56.854Z,1011.40
2018-11-21T10:47:52.498Z,1011.41
2018-11-21T10:52:48.418Z,1011.46
2018-11-21T10:57:44.407Z,1011.37
2018-11-21T11:02:40.180Z,1011.37
2018-11-21T11:07:39.657Z,1011.37
2018-11-21T11:12:35.816Z,1011.26
2018-11-21T11:17:31.330Z,1011.42
2018-11-21T11:22:26.927Z,1011.56
2018-11-21T11:27:24.185Z,1011.54
2018-11-21T11:32:19.688Z,1011.60
2018-11-21T11:37:16.429Z,1011.65
2018-11-21T11:42:11.716Z,1011.72
2018-11-21T11:47:07.102Z,1011.82
2018-11-21T11:52:03.303Z,1011.83
2018-11-21T11:56:59.047Z,1011.81
2018-11-21T12:01:54.788Z,1011.70
2018-11-21T12:06:51.412Z,1011.69
2018-11-21T12:11:47.086Z,1011.56
2018-11-21T12:16:42.853Z,1011.57
2018-11-21T12:21:38.626Z,1011.50
2018-11-21T12:26:34.921Z,1011.55
2018-11-21T12:31:31.226Z,1011.71
2018-11-21T12:36:28.235Z,1011.65
2018-11-21T12:41:23.904Z,1011.73
2018-11-21T12:46:19.781Z,1011.77
2018-11-21T12:51:15.531Z,1011.73
2018-11-21T12:56:12.326Z,1011.68
2018-11-21T13:01:08.802Z,1011.68
2018-11-21T13:06:04.543Z,1011.65
2018-11-21T13:11:00.476Z,1011.75
2018-11-21T13:15:56.877Z,1011.82
2018-11-21T13:20:53.059Z,1011.78
2018-11-21T13:25:48.362Z,1011.75
2018-11-21T13:30:44.048Z,1011.74
2018-11-21T13:35:39.637Z,1011.77
2018-11-21T13:40:36.151Z,1011.73
2018-11-21T13:45:31.527Z,1011.88
2018-11-21T13:50:34.107Z,1011.81
2018-11-21T13:55:27.423Z,1011.90
2018-11-21T14:00:24.056Z,1012.03
2018-11-21T14:05:19.822Z,1012.04
2018-11-21T14:10:15.465Z,1012.06
2018-11-21T14:15:12.213Z,1011.69
2018-11-21T14:20:07.676Z,1011.75
2018-11-21T14:25:03.395Z,1011.70
2018-11-21T14:29:59.691Z,1011.79
2018-11-21T14:34:55.624Z,1011.87
2018-11-21T14:39:51.178Z,1012.01
2018-11-21T14:44:47.836Z,1012.07
2018-11-21T14:49:43.875Z,1012.20
2018-11-21T14:54:39.503Z,1012.37
2018-11-21T14:59:35.735Z,1012.38
2018-11-21T15:04:31.302Z,1012.41
2018-11-21T15:09:26.929Z,1012.36
2018-11-21T15:14:22.669Z,1012.35
2018-11-21T15:19:18.336Z,1012.42
2018-11-21T15:24:13.975Z,1012.60
2018-11-21T15:29:09.731Z,1012.53
2018-11-21T15:34:05.304Z,1012.44
2018-11-21T15:39:00.896Z,1012.48
2018-11-21T15:43:56.565Z,1012.38
2018-11-21T15:48:52.160Z,1012.40
2018-11-21T15:53:47.792Z,1012.44
2018-11-21T15:58:43.461Z,1012.56
2018-11-21T16:03:41.127Z,1012.67
2018-11-21T16:08:36.503Z,1012.72
2018-11-21T16:13:32.329Z,1012.72
2018-11-21T16:18:27.614Z,1012.75
2018-11-21T16:23:23.523Z,1012.84
2018-11-21T16:28:19.107Z,1012.77
2018-11-21T16:33:14.912Z,1012.85
2018-11-21T16:38:11.590Z,1012.71
2018-11-21T16:43:06.985Z,1012.88
2018-11-21T16:48:02.699Z,1012.91
2018-11-21T16:52:58.458Z,1012.87
2018-11-21T16:57:54.175Z,1013.01
2018-11-21T17:02:49.738Z,1013.04
2018-11-21T17:07:45.638Z,1012.99
2018-11-21T17:12:41.281Z,1013.09
2018-11-21T17:17:37.043Z,1013.11
2018-11-21T17:22:32.716Z,1013.09
2018-11-21T17:27:28.116Z,1013.10
2018-11-21T17:32:24.488Z,1013.13
2018-11-21T17:37:20.096Z,1013.20
2018-11-21T17:42:15.761Z,1013.28
2018-11-21T17:47:11.493Z,1013.40
2018-11-21T17:52:07.696Z,1013.33
2018-11-21T17:57:03.184Z,1013.27
2018-11-21T18:01:58.360Z,1013.24
2018-11-21T18:06:53.840Z,1013.22
2018-11-21T18:11:49.319Z,1013.31
2018-11-21T18:16:44.898Z,1013.30
2018-11-21T18:21:40.371Z,1013.29
2018-11-21T18:26:37.014Z,1013.36
2018-11-21T18:31:32.146Z,1013.50
2018-11-21T18:36:28.578Z,1013.42
2018-11-21T18:41:23.779Z,1013.56
2018-11-21T18:46:19.249Z,1013.63
2018-11-21T18:51:14.978Z,1013.49
2018-11-21T18:56:11.633Z,1013.62
2018-11-21T19:01:08.064Z,1013.56
2018-11-21T19:06:03.969Z,1013.60
2018-11-21T19:10:59.448Z,1013.68
2018-11-21T19:15:56.050Z,1013.63
2018-11-21T19:20:51.418Z,1013.73
2018-11-21T19:25:48.739Z,1013.75
2018-11-21T19:30:44.648Z,1013.84
2018-11-21T19:35:40.429Z,1013.90
2018-11-21T19:40:37.228Z,1013.92
2018-11-21T19:45:33.099Z,1013.97
2018-11-21T19:50:28.829Z,1013.93
2018-11-21T19:55:25.683Z,1013.99
2018-11-21T20:00:20.879Z,1013.99
2018-11-21T20:05:16.665Z,1014.03
2018-11-21T20:10:13.442Z,1014.02
2018-11-21T20:15:09.205Z,1013.97
2018-11-21T20:20:05.870Z,1014.01
2018-11-21T20:25:01.233Z,1013.96
2018-11-21T20:29:56.963Z,1014.13
2018-11-21T20:34:53.747Z,1014.08
2018-11-21T20:39:49.203Z,1014.06
2018-11-21T20:44:45.093Z,1014.05
2018-11-21T20:49:41.549Z,1014.11
2018-11-21T20:54:37.362Z,1014.13
2018-11-21T20:59:35.247Z,1014.06
2018-11-21T21:04:30.387Z,1014.17
2018-11-21T21:09:26.068Z,1014.10
2018-11-21T21:14:21.637Z,1014.14
2018-11-21T21:19:18.245Z,1014.09
2018-11-21T21:24:13.526Z,1014.05
2018-11-21T21:29:09.132Z,1014.08
2018-11-21T21:34:04.807Z,1014.02
2018-11-21T21:39:00.329Z,1014.05
2018-11-21T21:43:57.154Z,1014.10
2018-11-21T21:48:53.373Z,1014.15
2018-11-21T21:53:49.226Z,1014.22
2018-11-21T21:58:45.875Z,1014.29
2018-11-21T22:03:41.090Z,1014.29
2018-11-21T22:08:36.880Z,1014.24
2018-11-21T22:13:32.615Z,1014.24
2018-11-21T22:18:29.180Z,1014.17
2018-11-21T22:23:25.581Z,1014.24
2018-11-21T22:28:21.799Z,1014.18
2018-11-21T22:33:18.086Z,1014.20
2018-11-21T22:38:13.592Z,1014.17
2018-11-21T22:43:09.356Z,1014.19
2018-11-21T22:48:04.924Z,1014.19
2018-11-21T22:53:01.436Z,1014.16
2018-11-21T22:57:56.849Z,1014.27
2018-11-21T23:02:52.441Z,1014.29
2018-11-21T23:07:49.112Z,1014.28
2018-11-21T23:12:44.486Z,1014.25
2018-11-21T23:17:40.828Z,1014.19
2018-11-21T23:22:37.356Z,1014.31
2018-11-21T23:27:33.711Z,1014.30
2018-11-21T23:32:29.986Z,1014.26
2018-11-21T23:37:26.856Z,1014.25
2018-11-21T23:42:23.006Z,1014.20
2018-11-21T23:47:18.378Z,1014.19
2018-11-21T23:52:15.110Z,1014.17
2018-11-21T23:57:16.180Z,1014.22
